Terminal Aerodrome Forecast
Issued by NWS Cleveland, OH

Home | Current Version | Previous Version | Graphics & Text | Print | Product List | Glossary On
Versions: 1 2 3 4 5 6 7 8 9 10 11 12 13 14 15 16 17 18 19 20 21 22 23 24 25 26 27 28 29 30 31 32 33 34 35 36
000
FTUS41 KCLE 211700
TAFYNG
TAF
KYNG 211732Z 2118/2218 23007KT P6SM VCSH BKN035
      TEMPO 2118/2120 6SM -TSRA BR BKN020CB BKN050
     FM212000 23008KT P6SM SCT035 BKN100
      TEMPO 2120/2124 2SM TSRA BR SCT015 OVC025CB
     FM220000 23004KT P6SM -SHRA BKN035 BKN100
     FM220600 24007KT 5SM BR VCSH BKN030 OVC100
     FM221200 24007KT 6SM BR VCSH BKN030=

USA.gov is the U.S. government's official web portal to all federal, state and local government web resources and services.